This is the latest recevied weather packets stored in our database for station/object NA4DL. If no packets are shown the sender has not sent any weather packets the latest 10 day(s).
| Time | Temp. | Humidity | Pressure | Rain* | Wind** | Luminosity | Snow |
|---|---|---|---|---|---|---|---|
| 1777678238 | 15.56° C | 51% | 1013.4 hPa | 0 mm | - | 70 W/m² | - |
| 1777677018 | 16.67° C | 49% | 1013.4 hPa | 0 mm | - | 67 W/m² | - |
| 1777676418 | 16.67° C | 48% | 1013.4 hPa | 0 mm | - | 100 W/m² | - |
| 1777668617 | 17.78° C | 58% | 1013.6 hPa | 0 mm | - | 202 W/m² | - |
| 1777666218 | 18.33° C | 57% | 1014 hPa | 0 mm | - | 222 W/m² | - |
| 1777664418 | 17.78° C | 59% | 1014.6 hPa | 0 mm | - | 607 W/m² | - |
| 1777663219 | 17.78° C | 55% | 1014.9 hPa | 0 mm | - | 557 W/m² | - |
| 1777654817 | 16.67° C | 65% | 1015.3 hPa | 0 mm | - | 538 W/m² | - |
| 1777654218 | 16.67° C | 65% | 1015.2 hPa | 0 mm | - | 589 W/m² | - |
| 1777651819 | 17.22° C | 62% | 1015.2 hPa | 0 mm | - | 194 W/m² | - |
| 1777650023 | 16.67° C | 59% | 1015.3 hPa | 0 mm | - | 73 W/m² | - |
| 1777649423 | 16.67° C | 59% | 1015.3 hPa | 0 mm | - | 62 W/m² | - |
| 1777648839 | 16.11° C | 58% | 1015.3 hPa | 0 mm | - | 51 W/m² | - |
| 1777645244 | 15° C | 64% | 1014.9 hPa | 0 mm | - | 94 W/m² | - |
| 1777642825 | 12.22° C | 75% | 1014.9 hPa | 0 mm | - | 50 W/m² | - |
| 1777639226 | 8.33° C | 94% | 1015 hPa | 0 mm | - | 25 W/m² | - |
| 1777637446 | 6.67° C | 99% | 1014.9 hPa | 0 mm | - | 21 W/m² | - |
| 1777633227 | 5.56° C | 99% | 1013.9 hPa | 0 mm | - | 2 W/m² | - |
| 1777632028 | 6.11° C | 99% | 1013.6 hPa | 0 mm | - | 0 W/m² | - |
| 1777626629 | 6.67° C | 99% | 1013.9 hPa | 0 mm | - | 0 W/m² | - |
| 1777626029 | 6.67° C | 99% | 1013.9 hPa | 0 mm | - | 0 W/m² | - |
| 1777625429 | 6.67° C | 99% | 1013.8 hPa | 0 mm | - | 0 W/m² | - |
| 1777624829 | 6.67° C | 99% | 1013.6 hPa | 0 mm | - | 0 W/m² | - |
| 1777624229 | 6.67° C | 100% | 1013.6 hPa | 0 mm | - | 0 W/m² | - |
| 1777622417 | 7.22° C | 99% | 1013.5 hPa | 0 mm | - | 0 W/m² | - |
* Rain latest hour (hover to see other rain measurements)
** Current wind speed in m/s (hover to see current wind gust speed)